KSCR/SCR METAR and TAF weather

Enter ICAO airport designator
Station Type Date Time Source
KSCR METAR 2018/12/13 08:40 UTC NOAA

KSCR 130840Z AUTO 00000KT 10SM SCT120 M03/M03 A3021 RMK AO2 T10261029


Station Type Date Time Source
KSCR Decoded METAR 2018/12/13 08:40 UTC NOAA

Station name not available
Dec 13, 2018 - 03:40 AM EST / 2018.12.13 0840 UTC
Wind: Calm:0
Visibility: 10 mile(s):0
Sky conditions: partly cloudy
Temperature: 27.3 F (-2.6 C)
Dew Point: 26.8 F (-2.9 C)
Relative Humidity: 97%
Pressure (altimeter): 30.21 in. Hg (1023 hPa)
ob: KSCR 130840Z AUTO 00000KT 10SM SCT120 M03/M03 A3021 RMK AO2 T10261029
cycle: 8

Station Type Date Time Source
KSCR TAF UTC NOAA

Error!


Example: see airport list